Terminal Aerodrome Forecast
Issued by NWS Omaha/Valley, NE

Home | Current Version | Previous Version | Text Only | Print | Product List | Glossary On
Versions: 1 2 3 4 5 6 7 8 9 10 11 12 13 14 15 16 17 18 19 20 21 22 23 24 25 26 27 28 29 30 31 32 33 34 35 36 37 38 39 40 41 42
000
FTUS43 KOAX 231905 AAA
TAFOFK
TAF AMD
KOFK 231905Z 2319/2418 30006KT P6SM OVC007
     FM232000 29006KT P6SM BKN100
     FM240500 29006KT 3SM BR FEW250
     FM241000 27005KT P6SM SKC=

USA.gov is the U.S. government's official web portal to all federal, state and local government web resources and services.